Seattle, Washington
Traffic Map
Current Weather Conditions
Seattle, Washington
Clear
Clear
52°
Feels Like: 52°
Wind Chill: 52° Ceiling: Unl
Heat Index: 52° Visibility: 10mi
Dew Point: 50° Wind: 5mph
Humidity: 93% Direction: 140° (SE)
Pressure: 29.82in Gusts: 0mph
Raw Report DataKBFI 210453Z 14004KT 10SM CLR 11/10 A2982 RMK AO2 SLP096 T01110100
Traffic Incident Summary
Active as of:
Severity:
Category:
InformationThere was an issue retrieving the traffic information for this location. Please try a different location or try again shortly.
Advertisements